createdAt,value
2017-07-22T00:00:19.916Z,20.10
2017-07-22T00:02:48.103Z,20.00
2017-07-22T00:05:15.534Z,20.10
2017-07-22T00:07:42.956Z,20.00
2017-07-22T00:10:10.382Z,20.00
2017-07-22T00:12:37.804Z,20.00
2017-07-22T00:15:06.012Z,19.90
2017-07-22T00:17:33.445Z,19.90
2017-07-22T00:20:01.636Z,19.80
2017-07-22T00:22:29.071Z,19.80
2017-07-22T00:24:57.263Z,19.70
2017-07-22T00:27:24.685Z,19.70
2017-07-22T00:29:52.107Z,19.70
2017-07-22T00:32:19.546Z,19.60
2017-07-22T00:34:53.507Z,19.60
2017-07-22T00:37:20.912Z,19.60
2017-07-22T00:39:48.343Z,19.60
2017-07-22T00:42:15.767Z,19.60
2017-07-22T00:44:43.180Z,19.60
2017-07-22T00:47:10.624Z,19.60
2017-07-22T00:49:38.057Z,19.50
2017-07-22T00:52:06.242Z,19.40
2017-07-22T00:54:33.665Z,19.40
2017-07-22T00:57:01.097Z,19.40
2017-07-22T00:59:28.533Z,19.30
2017-07-22T01:01:56.045Z,19.30
2017-07-22T01:04:23.449Z,19.30
2017-07-22T01:06:50.864Z,19.30
2017-07-22T01:09:19.066Z,19.20
2017-07-22T01:11:46.489Z,19.20
2017-07-22T01:14:14.687Z,19.20
2017-07-22T01:16:42.133Z,19.20
2017-07-22T01:19:09.541Z,19.30
2017-07-22T01:21:36.960Z,19.30
2017-07-22T01:24:04.416Z,19.20
2017-07-22T01:26:31.835Z,19.20
2017-07-22T01:29:00.029Z,19.00
2017-07-22T01:31:27.525Z,19.00
2017-07-22T01:33:54.947Z,19.00
2017-07-22T01:36:22.392Z,19.10
2017-07-22T01:38:50.580Z,19.00
2017-07-22T01:41:17.997Z,19.00
2017-07-22T01:43:45.425Z,19.00
2017-07-22T01:46:12.846Z,19.00
2017-07-22T01:48:40.270Z,19.10
2017-07-22T01:51:08.464Z,19.20
2017-07-22T01:53:36.101Z,19.10
2017-07-22T01:56:04.287Z,19.20
2017-07-22T01:58:31.721Z,19.20
2017-07-22T02:00:59.143Z,19.20
2017-07-22T02:03:26.583Z,19.20
2017-07-22T02:05:53.996Z,19.10
2017-07-22T02:08:21.444Z,19.10
2017-07-22T02:10:48.860Z,19.10
2017-07-22T02:13:16.291Z,19.00
2017-07-22T02:15:43.736Z,19.00
2017-07-22T02:18:11.160Z,19.00
2017-07-22T02:20:38.577Z,19.00
2017-07-22T02:23:05.998Z,19.00
2017-07-22T02:25:33.422Z,19.00
2017-07-22T02:28:00.847Z,19.00
2017-07-22T02:30:28.262Z,19.00
2017-07-22T02:32:56.453Z,19.10
2017-07-22T02:35:23.876Z,19.00
2017-07-22T02:37:51.304Z,19.00
2017-07-22T02:40:18.758Z,18.90
2017-07-22T02:42:46.176Z,18.90
2017-07-22T02:45:13.600Z,18.90
2017-07-22T02:47:41.025Z,18.90
2017-07-22T02:50:08.462Z,18.90
2017-07-22T02:52:35.893Z,18.90
2017-07-22T02:55:04.081Z,18.80
2017-07-22T02:57:31.506Z,18.80
2017-07-22T02:59:59.697Z,18.70
2017-07-22T03:02:27.116Z,18.70
2017-07-22T03:04:54.549Z,18.70
2017-07-22T03:07:21.980Z,18.70
2017-07-22T03:09:49.410Z,18.70
2017-07-22T03:12:16.834Z,18.80
2017-07-22T03:14:44.254Z,18.80
2017-07-22T03:17:11.703Z,18.70
2017-07-22T03:19:39.141Z,18.60
2017-07-22T03:22:07.363Z,18.50
2017-07-22T03:24:34.800Z,18.50
2017-07-22T03:27:02.221Z,18.60
2017-07-22T03:29:30.410Z,18.50
2017-07-22T03:31:57.840Z,18.50
2017-07-22T03:34:25.261Z,18.40
2017-07-22T03:36:52.720Z,18.40
2017-07-22T03:39:20.145Z,18.40
2017-07-22T03:41:47.564Z,18.40
2017-07-22T03:44:15.785Z,18.30
2017-07-22T03:46:43.212Z,18.30
2017-07-22T03:49:10.633Z,18.30
2017-07-22T03:51:38.058Z,18.30
2017-07-22T03:54:05.494Z,18.20
2017-07-22T03:56:32.913Z,18.20
2017-07-22T03:59:01.231Z,18.20
2017-07-22T04:01:28.634Z,18.20
2017-07-22T04:03:56.066Z,18.30
2017-07-22T04:06:23.522Z,18.30
2017-07-22T04:08:50.944Z,18.40
2017-07-22T04:11:18.369Z,18.30
2017-07-22T04:13:46.560Z,18.40
2017-07-22T04:16:13.997Z,18.30
2017-07-22T04:18:42.181Z,18.30
2017-07-22T04:21:09.622Z,18.30
2017-07-22T04:23:37.813Z,18.40
2017-07-22T04:26:05.238Z,18.40
2017-07-22T04:28:32.656Z,18.40
2017-07-22T04:31:00.080Z,18.50
2017-07-22T04:33:27.509Z,18.40
2017-07-22T04:35:54.928Z,18.30
2017-07-22T04:38:22.373Z,18.30
2017-07-22T04:40:49.803Z,18.40
2017-07-22T04:43:17.237Z,18.50
2017-07-22T04:45:44.668Z,18.50
2017-07-22T04:48:12.095Z,18.40
2017-07-22T04:50:39.521Z,18.50
2017-07-22T04:53:07.721Z,18.70
2017-07-22T04:55:35.147Z,18.70
2017-07-22T04:58:03.342Z,18.80
2017-07-22T05:00:30.765Z,18.80
2017-07-22T05:02:58.188Z,18.90
2017-07-22T05:05:25.613Z,18.90
2017-07-22T05:07:53.033Z,19.00
2017-07-22T05:10:21.252Z,19.10
2017-07-22T05:12:48.664Z,19.10
2017-07-22T05:15:16.856Z,19.20
2017-07-22T05:17:44.279Z,19.20
2017-07-22T05:20:11.700Z,19.00
2017-07-22T05:22:39.159Z,18.90
2017-07-22T05:25:06.599Z,18.90
2017-07-22T05:27:34.004Z,18.80
2017-07-22T05:30:02.197Z,18.60
2017-07-22T05:32:30.388Z,18.70
2017-07-22T05:34:57.808Z,18.70
2017-07-22T05:37:26.016Z,18.90
2017-07-22T05:39:53.437Z,18.90
2017-07-22T05:42:20.852Z,19.00
2017-07-22T05:44:48.324Z,19.20
2017-07-22T05:47:15.769Z,19.20
2017-07-22T05:49:43.168Z,19.20
2017-07-22T05:52:11.375Z,19.20
2017-07-22T05:54:38.797Z,19.20
2017-07-22T05:57:06.988Z,19.30
2017-07-22T05:59:34.403Z,19.30
2017-07-22T06:02:01.829Z,19.30
2017-07-22T06:04:29.257Z,19.30
2017-07-22T06:06:56.746Z,19.40
2017-07-22T06:09:24.190Z,19.40
2017-07-22T06:11:51.624Z,19.50
2017-07-22T06:14:19.037Z,19.60
2017-07-22T06:16:46.457Z,19.70
2017-07-22T06:19:13.877Z,19.80
2017-07-22T06:21:42.052Z,19.90
2017-07-22T06:24:10.245Z,19.90
2017-07-22T06:26:37.669Z,19.90
2017-07-22T06:29:05.093Z,19.90
2017-07-22T06:31:32.515Z,20.00
2017-07-22T06:33:59.932Z,19.90
2017-07-22T06:36:28.128Z,19.80
2017-07-22T06:38:55.548Z,19.80
2017-07-22T06:41:22.978Z,19.80
2017-07-22T06:43:50.397Z,19.90
2017-07-22T06:46:17.825Z,20.00
2017-07-22T06:48:45.237Z,20.00
2017-07-22T06:51:12.663Z,20.00
2017-07-22T06:53:40.084Z,19.90
2017-07-22T06:56:07.511Z,19.90
2017-07-22T06:58:34.929Z,19.80
2017-07-22T07:01:02.425Z,19.70
2017-07-22T07:03:29.894Z,19.70
2017-07-22T07:05:58.081Z,19.80
2017-07-22T07:08:25.513Z,19.80
2017-07-22T07:10:53.708Z,19.90
2017-07-22T07:13:21.134Z,19.90
2017-07-22T07:15:48.552Z,19.90
2017-07-22T07:18:15.996Z,19.80
2017-07-22T07:20:43.409Z,19.80
2017-07-22T07:23:11.625Z,19.80
2017-07-22T07:25:39.041Z,19.70
2017-07-22T07:28:07.225Z,19.90
2017-07-22T07:30:34.661Z,19.90
2017-07-22T07:33:02.078Z,19.90
2017-07-22T07:35:29.504Z,19.80
2017-07-22T07:37:56.937Z,19.80
2017-07-22T07:40:25.126Z,19.70
2017-07-22T07:42:52.552Z,19.70
2017-07-22T07:45:20.069Z,19.70
2017-07-22T07:47:47.485Z,19.60
2017-07-22T07:50:14.917Z,19.60
2017-07-22T07:52:42.328Z,19.60
2017-07-22T07:55:09.759Z,19.60
2017-07-22T07:57:37.944Z,19.40
2017-07-22T08:00:06.141Z,19.20
2017-07-22T08:02:33.573Z,19.10
2017-07-22T08:05:01.762Z,18.90
2017-07-22T08:07:29.178Z,18.90
2017-07-22T08:09:56.601Z,18.90
2017-07-22T08:12:24.029Z,19.10
2017-07-22T08:14:51.463Z,19.30
2017-07-22T08:17:19.656Z,19.60
2017-07-22T08:19:47.082Z,19.60
2017-07-22T08:22:14.505Z,19.70
2017-07-22T08:24:41.936Z,19.80
2017-07-22T08:27:09.373Z,19.90
2017-07-22T08:29:37.576Z,19.80
2017-07-22T08:32:05.000Z,19.70
2017-07-22T08:34:32.426Z,19.60
2017-07-22T08:37:00.628Z,19.10
2017-07-22T08:39:28.499Z,19.00
2017-07-22T08:41:56.681Z,19.00
2017-07-22T08:44:24.111Z,19.00
2017-07-22T08:46:51.532Z,19.20
2017-07-22T08:49:18.957Z,19.30
2017-07-22T08:51:46.376Z,19.40
2017-07-22T08:54:13.821Z,19.50
2017-07-22T08:56:41.229Z,19.50
2017-07-22T08:59:08.688Z,19.60
2017-07-22T09:01:36.108Z,19.70
2017-07-22T09:04:04.318Z,19.70
2017-07-22T09:06:31.751Z,19.60
2017-07-22T09:09:00.065Z,19.80
2017-07-22T09:11:27.486Z,19.80
2017-07-22T09:13:55.665Z,20.00
2017-07-22T09:16:23.155Z,19.90
2017-07-22T09:18:50.740Z,19.90
2017-07-22T09:21:18.249Z,20.00
2017-07-22T09:23:46.421Z,19.80
2017-07-22T09:26:13.869Z,19.80
2017-07-22T09:28:41.474Z,19.70
2017-07-22T09:31:08.968Z,19.60
2017-07-22T09:33:36.533Z,19.60
2017-07-22T09:36:03.953Z,19.60
2017-07-22T09:38:31.382Z,19.70
2017-07-22T09:40:58.830Z,19.70
2017-07-22T09:43:26.912Z,19.80
2017-07-22T09:45:54.361Z,19.80
2017-07-22T09:48:21.799Z,19.80
2017-07-22T09:50:49.977Z,20.00
2017-07-22T09:53:17.391Z,19.90
2017-07-22T09:55:44.813Z,20.00
2017-07-22T09:58:12.245Z,19.70
2017-07-22T10:00:39.681Z,19.70
2017-07-22T10:03:07.868Z,19.40
2017-07-22T10:05:35.301Z,19.40
2017-07-22T10:08:03.485Z,19.40
2017-07-22T10:10:30.917Z,19.40
2017-07-22T10:12:58.343Z,19.60
2017-07-22T10:15:25.777Z,19.60
2017-07-22T10:17:53.271Z,20.00
2017-07-22T10:20:20.695Z,20.20
2017-07-22T10:22:48.116Z,20.30
2017-07-22T10:25:16.300Z,20.40
2017-07-22T10:27:43.724Z,20.40
2017-07-22T10:30:11.147Z,20.40
2017-07-22T10:32:38.598Z,20.50
2017-07-22T10:35:06.008Z,20.60
2017-07-22T10:37:34.218Z,20.40
2017-07-22T10:40:01.661Z,20.40
2017-07-22T10:42:29.141Z,20.40
2017-07-22T10:44:56.595Z,20.60
2017-07-22T10:47:24.031Z,20.80
2017-07-22T10:49:51.458Z,21.00
2017-07-22T10:52:19.651Z,21.80
2017-07-22T10:54:47.076Z,21.70
2017-07-22T10:57:14.530Z,21.80
2017-07-22T10:59:41.963Z,21.60
2017-07-22T11:02:09.406Z,22.00
2017-07-22T11:04:36.823Z,22.50
2017-07-22T11:07:04.252Z,22.90
2017-07-22T11:09:31.680Z,22.60
2017-07-22T11:11:59.115Z,22.70
2017-07-22T11:14:26.584Z,22.00
2017-07-22T11:16:53.997Z,21.60
2017-07-22T11:19:21.432Z,21.60
2017-07-22T11:21:49.627Z,21.80
2017-07-22T11:24:17.817Z,21.90
2017-07-22T11:26:45.245Z,21.80
2017-07-22T11:29:13.462Z,22.20
2017-07-22T11:31:40.878Z,22.20
2017-07-22T11:34:09.077Z,23.20
2017-07-22T11:36:36.506Z,23.20
2017-07-22T11:39:04.697Z,23.20
2017-07-22T11:41:32.126Z,23.20
2017-07-22T11:44:00.348Z,24.30
2017-07-22T11:46:27.768Z,24.30
2017-07-22T11:48:55.969Z,24.10
2017-07-22T11:51:23.391Z,24.10
2017-07-22T11:53:51.591Z,24.70
2017-07-22T11:56:19.008Z,24.70
2017-07-22T11:58:46.452Z,24.10
2017-07-22T12:01:13.870Z,24.20
2017-07-22T12:03:41.295Z,23.80
2017-07-22T12:06:09.526Z,24.40
2017-07-22T12:08:36.953Z,24.30
2017-07-22T12:11:04.368Z,25.00
2017-07-22T12:13:32.564Z,24.50
2017-07-22T12:16:00.750Z,25.10
2017-07-22T12:18:28.182Z,25.10
2017-07-22T12:20:56.378Z,25.20
2017-07-22T12:23:23.793Z,25.20
2017-07-22T12:25:51.994Z,25.10
2017-07-22T12:28:19.425Z,25.10
2017-07-22T12:30:46.851Z,25.70
2017-07-22T12:33:14.330Z,26.30
2017-07-22T12:35:41.770Z,27.70
2017-07-22T12:38:09.215Z,28.20
2017-07-22T12:40:36.650Z,28.90
2017-07-22T12:43:04.866Z,27.60
2017-07-22T12:45:32.296Z,27.50
2017-07-22T12:47:59.728Z,27.30
2017-07-22T12:50:27.933Z,26.50
2017-07-22T12:52:55.416Z,26.50
2017-07-22T12:55:22.874Z,26.20
2017-07-22T12:57:50.329Z,26.80
2017-07-22T13:00:17.761Z,26.90
2017-07-22T13:02:45.193Z,26.90
2017-07-22T13:05:12.619Z,27.40
2017-07-22T13:07:40.046Z,27.30
2017-07-22T13:10:07.476Z,28.70
2017-07-22T13:12:34.914Z,29.40
2017-07-22T13:15:03.130Z,30.40
2017-07-22T13:17:30.594Z,30.30
2017-07-22T13:19:58.013Z,31.10
2017-07-22T13:22:25.441Z,33.30
2017-07-22T13:24:52.888Z,35.20
2017-07-22T13:27:20.409Z,36.00
2017-07-22T13:29:47.950Z,34.80
2017-07-22T13:32:15.369Z,32.90
2017-07-22T13:34:43.594Z,34.70
2017-07-22T13:37:11.000Z,34.60
2017-07-22T13:39:38.426Z,35.70
2017-07-22T13:42:05.971Z,37.20
2017-07-22T13:44:33.397Z,38.50
2017-07-22T13:47:00.821Z,37.30
2017-07-22T13:49:28.256Z,35.00
2017-07-22T13:51:56.450Z,31.50
2017-07-22T13:54:23.925Z,31.40
2017-07-22T13:56:51.328Z,31.20
2017-07-22T13:59:18.847Z,32.20
2017-07-22T14:01:46.300Z,34.40
2017-07-22T14:04:13.727Z,34.50
2017-07-22T14:06:41.156Z,35.40
2017-07-22T14:09:08.600Z,36.00
2017-07-22T14:11:36.057Z,33.40
2017-07-22T14:14:03.492Z,33.50
2017-07-22T14:16:30.942Z,33.90
2017-07-22T14:18:58.371Z,33.90
2017-07-22T14:21:25.787Z,35.50
2017-07-22T14:23:53.233Z,37.40
2017-07-22T14:26:20.641Z,38.70
2017-07-22T14:28:48.078Z,39.10
2017-07-22T14:31:16.291Z,38.30
2017-07-22T14:33:43.704Z,38.20
2017-07-22T14:36:11.124Z,35.80
2017-07-22T14:38:38.542Z,33.30
2017-07-22T14:41:05.976Z,31.40
2017-07-22T14:43:33.396Z,29.70
2017-07-22T14:46:00.913Z,29.50
2017-07-22T14:48:28.328Z,29.90
2017-07-22T14:50:56.520Z,31.40
2017-07-22T14:53:23.945Z,31.40
2017-07-22T14:55:51.388Z,31.50
2017-07-22T14:58:18.810Z,31.80
2017-07-22T15:00:46.247Z,30.00
2017-07-22T15:03:13.677Z,30.90
2017-07-22T15:05:41.905Z,32.50
2017-07-22T15:08:09.361Z,32.50
2017-07-22T15:10:36.790Z,31.90
2017-07-22T15:13:04.200Z,32.40
2017-07-22T15:15:31.744Z,30.80
2017-07-22T15:17:59.182Z,29.80
2017-07-22T15:20:26.597Z,30.00
2017-07-22T15:22:54.792Z,30.10
2017-07-22T15:25:22.206Z,30.10
2017-07-22T15:27:49.623Z,30.40
2017-07-22T15:30:17.079Z,29.20
2017-07-22T15:32:44.530Z,29.00
2017-07-22T15:35:11.944Z,28.10
2017-07-22T15:37:40.137Z,27.80
2017-07-22T15:40:07.572Z,27.80
2017-07-22T15:42:35.756Z,28.20
2017-07-22T15:45:03.170Z,28.20
2017-07-22T15:47:30.621Z,27.80
2017-07-22T15:49:58.050Z,27.60
2017-07-22T15:52:25.447Z,27.70
2017-07-22T15:54:52.876Z,27.90
2017-07-22T15:57:20.325Z,28.00
2017-07-22T15:59:47.731Z,28.30
2017-07-22T16:02:15.151Z,29.50
2017-07-22T16:04:42.627Z,30.10
2017-07-22T16:07:10.046Z,30.50
2017-07-22T16:09:37.467Z,31.60
2017-07-22T16:12:05.675Z,31.30
2017-07-22T16:14:33.088Z,31.20
2017-07-22T16:17:00.527Z,30.40
2017-07-22T16:19:27.953Z,29.30
2017-07-22T16:21:55.378Z,28.10
2017-07-22T16:24:22.910Z,27.50
2017-07-22T16:26:51.099Z,26.70
2017-07-22T16:29:18.520Z,26.70
2017-07-22T16:31:46.044Z,26.40
2017-07-22T16:34:13.492Z,25.90
2017-07-22T16:36:41.009Z,25.80
2017-07-22T16:39:08.525Z,25.70
2017-07-22T16:41:35.931Z,25.60
2017-07-22T16:44:04.142Z,25.50
2017-07-22T16:46:31.543Z,25.50
2017-07-22T16:48:59.732Z,25.50
2017-07-22T16:51:27.948Z,25.50
2017-07-22T16:53:55.352Z,25.40
2017-07-22T16:56:23.543Z,25.20
2017-07-22T16:58:50.964Z,25.20
2017-07-22T17:01:18.386Z,25.10
2017-07-22T17:03:45.814Z,25.10
2017-07-22T17:06:13.237Z,25.20
2017-07-22T17:08:40.683Z,25.00
2017-07-22T17:11:08.109Z,24.90
2017-07-22T17:13:35.538Z,24.60
2017-07-22T17:16:02.986Z,24.50
2017-07-22T17:18:31.178Z,24.50
2017-07-22T17:20:58.614Z,24.50
2017-07-22T17:23:26.837Z,24.40
2017-07-22T17:25:54.279Z,24.40
2017-07-22T17:28:21.701Z,24.30
2017-07-22T17:30:49.140Z,24.30
2017-07-22T17:33:16.563Z,24.40
2017-07-22T17:35:43.980Z,24.30
2017-07-22T17:38:11.434Z,24.40
2017-07-22T17:40:38.852Z,24.40
2017-07-22T17:43:06.284Z,24.30
2017-07-22T17:45:33.721Z,24.20
2017-07-22T17:48:01.148Z,24.20
2017-07-22T17:50:28.580Z,24.10
2017-07-22T17:52:56.010Z,24.00
2017-07-22T17:55:23.477Z,24.00
2017-07-22T17:57:51.004Z,23.90
2017-07-22T18:00:18.453Z,23.90
2017-07-22T18:02:46.025Z,24.00
2017-07-22T18:05:13.449Z,23.80
2017-07-22T18:07:40.900Z,23.80
2017-07-22T18:10:08.361Z,23.70
2017-07-22T18:12:35.792Z,23.70
2017-07-22T18:15:03.216Z,23.70
2017-07-22T18:17:31.412Z,23.50
2017-07-22T18:19:58.844Z,23.50
2017-07-22T18:22:26.269Z,23.50
2017-07-22T18:24:53.708Z,23.50
2017-07-22T18:27:21.138Z,23.50
2017-07-22T18:29:48.566Z,23.50
2017-07-22T18:32:15.995Z,23.70
2017-07-22T18:34:43.453Z,24.00
2017-07-22T18:37:10.903Z,24.10
2017-07-22T18:39:38.348Z,24.00
2017-07-22T18:42:05.801Z,23.80
2017-07-22T18:44:33.243Z,23.50
2017-07-22T18:47:00.661Z,23.50
2017-07-22T18:49:28.858Z,23.30
2017-07-22T18:51:56.280Z,23.30
2017-07-22T18:54:23.726Z,23.10
2017-07-22T18:56:51.162Z,23.10
2017-07-22T18:59:18.598Z,23.00
2017-07-22T19:01:46.026Z,22.90
2017-07-22T19:04:13.450Z,22.80
2017-07-22T19:06:40.885Z,22.80
2017-07-22T19:09:08.357Z,22.80
2017-07-22T19:11:35.787Z,22.70
2017-07-22T19:14:03.222Z,22.70
2017-07-22T19:16:30.669Z,22.60
2017-07-22T19:18:58.101Z,22.70
2017-07-22T19:21:26.294Z,22.70
2017-07-22T19:23:53.744Z,22.60
2017-07-22T19:26:21.942Z,22.70
2017-07-22T19:28:49.370Z,22.70
2017-07-22T19:31:16.820Z,22.70
2017-07-22T19:33:44.254Z,22.60
2017-07-22T19:36:11.684Z,22.60
2017-07-22T19:38:39.132Z,22.50
2017-07-22T19:41:06.854Z,22.50
2017-07-22T19:43:35.082Z,22.30
2017-07-22T19:46:02.513Z,22.30
2017-07-22T19:48:29.940Z,22.30
2017-07-22T19:50:58.156Z,22.20
2017-07-22T19:53:26.019Z,22.20
2017-07-22T19:55:53.443Z,22.20
2017-07-22T19:58:20.884Z,22.20
2017-07-22T20:00:49.090Z,22.10
2017-07-22T20:03:16.544Z,22.10
2017-07-22T20:05:43.965Z,22.10
2017-07-22T20:08:12.165Z,21.90
2017-07-22T20:10:39.605Z,21.90
2017-07-22T20:13:07.827Z,21.90
2017-07-22T20:15:35.290Z,21.90
2017-07-22T20:18:02.763Z,21.90
2017-07-22T20:20:30.197Z,21.80
2017-07-22T20:22:57.621Z,21.80
2017-07-22T20:25:25.501Z,21.80
2017-07-22T20:27:53.040Z,21.80
2017-07-22T20:30:20.477Z,21.70
2017-07-22T20:32:48.727Z,21.60
2017-07-22T20:35:16.175Z,21.60
2017-07-22T20:37:43.613Z,21.60
2017-07-22T20:40:11.042Z,21.60
2017-07-22T20:42:38.477Z,21.50
2017-07-22T20:45:06.674Z,21.50
2017-07-22T20:47:34.109Z,21.40
2017-07-22T20:50:02.313Z,21.40
2017-07-22T20:52:29.750Z,21.30
2017-07-22T20:54:57.940Z,21.30
2017-07-22T20:57:25.378Z,21.30
2017-07-22T20:59:53.573Z,21.30
2017-07-22T21:02:21.219Z,21.20
2017-07-22T21:04:48.702Z,21.30
2017-07-22T21:07:16.493Z,21.20
2017-07-22T21:09:44.215Z,21.20
2017-07-22T21:12:11.644Z,21.10
2017-07-22T21:14:40.100Z,21.10
2017-07-22T21:17:07.769Z,21.00
2017-07-22T21:19:35.406Z,21.10
2017-07-22T21:22:03.369Z,21.00
2017-07-22T21:24:33.201Z,21.00
2017-07-22T21:27:00.900Z,20.90
2017-07-22T21:29:28.637Z,20.90
2017-07-22T21:31:57.755Z,20.90
2017-07-22T21:34:25.511Z,20.80
2017-07-22T21:36:53.282Z,20.80
2017-07-22T21:39:21.693Z,20.90
2017-07-22T21:41:49.124Z,20.80
2017-07-22T21:44:16.595Z,20.90
2017-07-22T21:46:44.033Z,20.90
2017-07-22T21:49:11.481Z,20.90
2017-07-22T21:51:38.899Z,20.90
2017-07-22T21:54:06.328Z,20.90
2017-07-22T21:56:33.784Z,20.90
2017-07-22T21:59:01.993Z,20.80
2017-07-22T22:01:29.427Z,20.70
2017-07-22T22:03:57.636Z,20.70
2017-07-22T22:06:25.193Z,20.70
2017-07-22T22:08:52.714Z,20.70
2017-07-22T22:11:20.192Z,20.70
2017-07-22T22:13:47.640Z,20.80
2017-07-22T22:16:15.074Z,20.80
2017-07-22T22:18:42.501Z,20.80
2017-07-22T22:21:09.949Z,20.90
2017-07-22T22:23:37.459Z,20.80
2017-07-22T22:26:05.657Z,20.80
2017-07-22T22:28:33.134Z,20.80
2017-07-22T22:31:00.545Z,20.80
2017-07-22T22:33:27.987Z,20.70
2017-07-22T22:35:56.226Z,20.70
2017-07-22T22:38:23.641Z,20.60
2017-07-22T22:40:51.087Z,20.60
2017-07-22T22:43:18.576Z,20.60
2017-07-22T22:45:46.048Z,20.50
2017-07-22T22:48:13.481Z,20.50
2017-07-22T22:50:40.943Z,20.50
2017-07-22T22:53:08.367Z,20.40
2017-07-22T22:55:36.553Z,20.40
2017-07-22T22:58:03.988Z,20.40
2017-07-22T23:00:32.196Z,20.40
2017-07-22T23:02:59.617Z,20.40
2017-07-22T23:05:27.820Z,20.30
2017-07-22T23:07:55.342Z,20.30
2017-07-22T23:10:23.549Z,20.20
2017-07-22T23:12:50.976Z,20.20
2017-07-22T23:15:19.185Z,20.20
2017-07-22T23:17:46.607Z,20.20
2017-07-22T23:20:14.805Z,20.20
2017-07-22T23:22:42.246Z,20.10
2017-07-22T23:25:10.461Z,20.10
2017-07-22T23:27:38.683Z,20.00
2017-07-22T23:30:06.882Z,19.90
2017-07-22T23:32:34.318Z,19.90
2017-07-22T23:35:02.531Z,19.90
2017-07-22T23:37:29.950Z,19.90
2017-07-22T23:40:19.485Z,19.90
2017-07-22T23:42:46.904Z,19.80
2017-07-22T23:45:14.332Z,19.80
2017-07-22T23:47:41.753Z,19.80
2017-07-22T23:50:09.178Z,19.80
2017-07-22T23:52:36.616Z,19.70
2017-07-22T23:55:04.058Z,19.60
2017-07-22T23:57:32.265Z,19.60
2017-07-22T23:59:59.690Z,19.60
